Lockheed C-130H-30 Hercules from 336th RNLAF at Eindhoven.
 Regi:G-275  LARGER
 MSN Year:5275
 Date of picture:2007-07-12 10:03
 Logs: 480C04 G-275 NAF35 2007-07-12 14:18 C-130H-30 Netherlands 336sqn Alphen aan den Rijn, NL 2007-07-12 12:18:36
 Metar 12/07/2007 09:55 METAR EHEH 120955Z 23011KT 9999 SCT026 BKN050 18/12 Q1015 BLU BLU=
 Hits: 514 ID: 80

Debriefing: Photographed movements of Airports in NW-Europe.
The images of our site attendant is in authorisation from Queen of Sky.
Copying of images of this site have been prohibited in which manner without the authorisation of the photographer.
In behalf of the crew :"Thank you visiting us" - Contact
Factsheets Lockheed, C-130H-30 Hercules, 336th RNLAF, made by De Plane! © 2006 - 2022 All rights reserved


.